Time;durP1;ratioP1;P1;durP2;ratioP2;P2;SDS_P1;SDS_P2;PMS_P1;PMS_P2;Temp;Humidity;BMP_temperature;BMP_pressure;BME280_temperature;BME280_humidity;BME280_pressure;Samples;Min_cycle;Max_cycle;Signal;HPM_P1;HPM_P2
2022/06/12 00:00:16;;;;;;;4.80;4.40;;;;;;;;;;5107961;28;20238;-66
2022/06/12 00:02:43;;;;;;;4.63;4.23;;;;;;;;;;5109224;28;20287;-64
2022/06/12 00:05:13;;;;;;;5.97;4.57;;;;;;;;;;5110418;28;20213;-65
2022/06/12 00:07:41;;;;;;;4.73;4.27;;;;;;;;;;5119678;28;20204;-66
2022/06/12 00:10:09;;;;;;;5.40;4.87;;;;;;;;;;5110402;27;20223;-65
2022/06/12 00:12:36;;;;;;;5.50;4.83;;;;;;;;;;5113222;28;20216;-65
2022/06/12 00:15:04;;;;;;;4.97;4.47;;;;;;;;;;5113576;28;20677;-65
2022/06/12 00:17:31;;;;;;;4.97;4.47;;;;;;;;;;5100206;27;20199;-66
2022/06/12 00:19:59;;;;;;;5.03;4.30;;;;;;;;;;5114906;27;20710;-66
2022/06/12 00:22:26;;;;;;;4.40;3.63;;;;;;;;;;5115189;27;20219;-65
2022/06/12 00:24:53;;;;;;;5.10;4.60;;;;;;;;;;5109378;27;20475;-65
2022/06/12 00:27:22;;;;;;;4.07;3.73;;;;;;;;;;5110487;27;20214;-65
2022/06/12 00:29:50;;;;;;;4.30;4.00;;;;;;;;;;5105541;27;20252;-65
2022/06/12 00:32:18;;;;;;;4.10;3.80;;;;;;;;;;5112384;27;20219;-65
2022/06/12 00:34:50;;;;;;;4.23;3.20;;;;;;;;;;5110372;27;20568;-64
2022/06/12 00:37:18;;;;;;;4.10;3.73;;;;;;;;;;5111863;27;20541;-64
2022/06/12 00:39:47;;;;;;;4.13;3.83;;;;;;;;;;5111813;27;20248;-64
2022/06/12 00:42:26;;;;;;;4.57;3.53;;;;;;;;;;5107308;28;20224;-63
2022/06/12 00:44:55;;;;;;;4.33;3.93;;;;;;;;;;5110041;27;20672;-63
2022/06/12 00:47:23;;;;;;;5.30;4.07;;;;;;;;;;5106909;27;20249;-63
2022/06/12 00:49:53;;;;;;;4.10;3.80;;;;;;;;;;5110608;27;20219;-64
2022/06/12 00:52:33;;;;;;;4.13;3.77;;;;;;;;;;5126475;27;20220;-64
2022/06/12 00:55:06;;;;;;;4.07;3.30;;;;;;;;;;5111055;27;20232;-65
2022/06/12 00:57:33;;;;;;;3.87;3.50;;;;;;;;;;5111449;27;20479;-65
2022/06/12 01:00:04;;;;;;;3.53;3.23;;;;;;;;;;5112019;27;20204;-64
2022/06/12 01:02:36;;;;;;;3.63;3.33;;;;;;;;;;5114591;27;20251;-66
2022/06/12 01:07:53;;;;;;;4.53;3.60;;;;;;;;;;5121917;27;20395;-64
2022/06/12 01:10:28;;;;;;;4.43;4.00;;;;;;;;;;5105199;27;21602;-64
2022/06/12 01:12:58;;;;;;;5.60;4.37;;;;;;;;;;5106673;27;20825;-64
2022/06/12 01:15:35;;;;;;;5.17;4.73;;;;;;;;;;5106842;28;20231;-64
2022/06/12 01:18:04;;;;;;;5.13;4.73;;;;;;;;;;5111315;27;20219;-65
2022/06/12 01:20:39;;;;;;;5.87;5.37;;;;;;;;;;5109500;27;20203;-66
2022/06/12 01:23:06;;;;;;;5.97;5.37;;;;;;;;;;5102636;27;20215;-65
2022/06/12 01:25:52;;;;;;;6.73;6.03;;;;;;;;;;5109457;27;20219;-65
2022/06/12 01:28:37;;;;;;;8.87;7.03;;;;;;;;;;5114534;27;20206;-65
2022/06/12 01:31:27;;;;;;;8.47;7.13;;;;;;;;;;5106152;28;20735;-66
2022/06/12 01:34:06;;;;;;;7.87;5.83;;;;;;;;;;5111972;28;20204;-65
2022/06/12 01:36:43;;;;;;;5.70;4.97;;;;;;;;;;5115265;27;20641;-65
2022/06/12 01:39:13;;;;;;;4.63;3.80;;;;;;;;;;5115223;27;20580;-66
2022/06/12 01:41:47;;;;;;;4.17;3.87;;;;;;;;;;5115220;27;20739;-64
2022/06/12 01:44:19;;;;;;;3.60;3.30;;;;;;;;;;5112357;27;20263;-64
2022/06/12 01:46:47;;;;;;;4.93;4.00;;;;;;;;;;5120905;27;20196;-64
2022/06/12 01:49:21;;;;;;;10.53;4.60;;;;;;;;;;5125367;27;20264;-64
2022/06/12 01:52:24;;;;;;;5.40;4.50;;;;;;;;;;5111686;27;20621;-66
2022/06/12 01:54:57;;;;;;;5.47;4.50;;;;;;;;;;5028458;28;20202;-65
2022/06/12 01:57:43;;;;;;;3.90;3.60;;;;;;;;;;5095021;28;20200;-63
2022/06/12 02:00:13;;;;;;;4.77;4.00;;;;;;;;;;5109558;27;20214;-65
2022/06/12 02:03:13;;;;;;;4.40;4.00;;;;;;;;;;5110386;27;20637;-65
2022/06/12 02:05:44;;;;;;;4.43;4.03;;;;;;;;;;5054368;27;20203;-65
2022/06/12 02:08:18;;;;;;;4.80;4.40;;;;;;;;;;5121849;27;20199;-65
2022/06/12 02:14:02;;;;;;;4.10;3.73;;;;;;;;;;5120044;27;20244;-65
2022/06/12 02:16:32;;;;;;;4.57;4.17;;;;;;;;;;5109840;27;20203;-65
2022/06/12 02:19:03;;;;;;;4.87;4.47;;;;;;;;;;5104368;27;20769;-65
2022/06/12 02:21:31;;;;;;;5.30;4.80;;;;;;;;;;5111914;27;20211;-65
2022/06/12 02:24:01;;;;;;;5.40;4.00;;;;;;;;;;5102259;27;20212;-65
2022/06/12 02:26:33;;;;;;;3.80;3.50;;;;;;;;;;5108958;27;20697;-63
2022/06/12 02:29:02;;;;;;;5.50;4.90;;;;;;;;;;5105330;28;20725;-65
2022/06/12 02:31:32;;;;;;;5.80;5.20;;;;;;;;;;5112874;28;20220;-63
2022/06/12 02:34:05;;;;;;;5.43;4.93;;;;;;;;;;5112894;27;20202;-64
2022/06/12 02:36:35;;;;;;;6.30;5.27;;;;;;;;;;5112156;27;20661;-64
2022/06/12 02:39:21;;;;;;;5.90;5.30;;;;;;;;;;5102543;28;20196;-64
2022/06/12 02:41:48;;;;;;;5.87;5.37;;;;;;;;;;5112944;27;20222;-63
2022/06/12 02:44:18;;;;;;;7.00;5.87;;;;;;;;;;5112504;27;20251;-64
2022/06/12 02:46:52;;;;;;;10.23;7.53;;;;;;;;;;5106298;27;20276;-64
2022/06/12 02:49:19;;;;;;;11.07;8.87;;;;;;;;;;5108630;27;20204;-64
2022/06/12 02:52:02;;;;;;;11.13;8.50;;;;;;;;;;5105936;28;20222;-64
2022/06/12 02:54:42;;;;;;;9.87;7.70;;;;;;;;;;5107526;27;20221;-65
2022/06/12 02:57:19;;;;;;;7.23;6.37;;;;;;;;;;5107204;27;20656;-65
2022/06/12 02:59:49;;;;;;;5.60;5.10;;;;;;;;;;5106198;28;20203;-65
2022/06/12 03:02:23;;;;;;;7.80;5.20;;;;;;;;;;5109783;27;20227;-65
2022/06/12 03:05:02;;;;;;;5.17;4.67;;;;;;;;;;5105562;27;20210;-65
2022/06/12 03:07:33;;;;;;;4.83;4.10;;;;;;;;;;5109811;27;20199;-66
2022/06/12 03:10:04;;;;;;;4.67;4.10;;;;;;;;;;5103386;27;20227;-65
2022/06/12 03:12:32;;;;;;;4.70;4.30;;;;;;;;;;5104705;27;20684;-65
2022/06/12 03:15:01;;;;;;;3.80;3.50;;;;;;;;;;5101125;28;20219;-65
2022/06/12 03:17:28;;;;;;;4.20;3.90;;;;;;;;;;5111153;27;20196;-64
2022/06/12 03:19:56;;;;;;;3.83;3.53;;;;;;;;;;5111098;27;20676;-64
2022/06/12 03:22:31;;;;;;;4.20;3.80;;;;;;;;;;5111526;27;20255;-64
2022/06/12 03:25:10;;;;;;;3.70;3.40;;;;;;;;;;5106849;27;20260;-65
2022/06/12 03:27:38;;;;;;;4.63;3.83;;;;;;;;;;5108417;27;20242;-64
2022/06/12 03:30:19;;;;;;;4.23;3.53;;;;;;;;;;5110807;27;20342;-64
2022/06/12 03:32:46;;;;;;;3.73;3.43;;;;;;;;;;5102497;27;20212;-64
2022/06/12 03:35:17;;;;;;;4.90;3.30;;;;;;;;;;5103445;27;20224;-64
2022/06/12 03:37:44;;;;;;;3.63;3.33;;;;;;;;;;5119235;27;20210;-63
2022/06/12 03:40:17;;;;;;;4.30;3.77;;;;;;;;;;5107816;27;20242;-65
2022/06/12 03:42:45;;;;;;;4.37;3.80;;;;;;;;;;5106731;28;20280;-65
2022/06/12 03:45:22;;;;;;;5.47;3.90;;;;;;;;;;5106364;27;20203;-65
2022/06/12 03:47:50;;;;;;;3.80;3.50;;;;;;;;;;5106789;27;20199;-65
2022/06/12 03:50:26;;;;;;;5.10;4.10;;;;;;;;;;5106096;27;20246;-65
2022/06/12 03:53:13;;;;;;;4.43;3.60;;;;;;;;;;5102643;28;20220;-65
2022/06/12 03:58:35;;;;;;;5.00;3.93;;;;;;;;;;5120500;27;20203;-65
2022/06/12 04:01:03;;;;;;;3.23;2.93;;;;;;;;;;5107173;28;20204;-65
2022/06/12 04:03:33;;;;;;;3.20;3.00;;;;;;;;;;5109428;28;20641;-65
2022/06/12 04:06:03;;;;;;;3.40;3.10;;;;;;;;;;5106773;28;20214;-65
2022/06/12 04:08:36;;;;;;;3.70;3.40;;;;;;;;;;5109226;28;20230;-65
2022/06/12 04:11:04;;;;;;;4.00;3.70;;;;;;;;;;5107177;28;20228;-65
2022/06/12 04:13:31;;;;;;;4.30;3.50;;;;;;;;;;5108917;28;20718;-65
2022/06/12 04:16:01;;;;;;;4.13;3.63;;;;;;;;;;5108358;28;20199;-65
2022/06/12 04:18:30;;;;;;;4.57;3.90;;;;;;;;;;5107120;28;20225;-65
2022/06/12 04:20:59;;;;;;;3.80;3.50;;;;;;;;;;5119039;28;20208;-65
2022/06/12 04:23:33;;;;;;;4.23;3.30;;;;;;;;;;5107915;28;20224;-65
2022/06/12 04:26:04;;;;;;;5.50;3.60;;;;;;;;;;5101644;28;20686;-65
2022/06/12 04:28:35;;;;;;;3.70;3.40;;;;;;;;;;5100567;28;20940;-65
2022/06/12 04:31:04;;;;;;;3.57;3.30;;;;;;;;;;5101489;28;20227;-65
2022/06/12 04:33:51;;;;;;;3.37;3.17;;;;;;;;;;5109951;28;20238;-63
2022/06/12 04:36:18;;;;;;;3.50;3.20;;;;;;;;;;5102703;28;20239;-64
2022/06/12 04:38:46;;;;;;;3.67;3.37;;;;;;;;;;5106525;28;20682;-65
2022/06/12 04:41:20;;;;;;;3.53;3.27;;;;;;;;;;5104476;28;20250;-64
2022/06/12 04:43:47;;;;;;;3.63;3.33;;;;;;;;;;5106612;28;20200;-65
2022/06/12 04:46:15;;;;;;;3.53;3.23;;;;;;;;;;5097427;28;20306;-65
2022/06/12 04:48:44;;;;;;;4.17;3.30;;;;;;;;;;5106704;28;20575;-64
2022/06/12 04:51:12;;;;;;;4.03;3.63;;;;;;;;;;5109059;28;20227;-64
2022/06/12 04:53:40;;;;;;;4.00;3.70;;;;;;;;;;5103255;28;20199;-64
2022/06/12 04:56:08;;;;;;;3.83;3.53;;;;;;;;;;5107275;27;20215;-65
2022/06/12 04:58:37;;;;;;;3.70;3.23;;;;;;;;;;5112059;27;20809;-65
2022/06/12 05:01:04;;;;;;;4.57;3.80;;;;;;;;;;5109358;27;20204;-66
2022/06/12 05:03:31;;;;;;;3.70;3.40;;;;;;;;;;5111776;27;20219;-65
2022/06/12 05:05:59;;;;;;;4.57;3.27;;;;;;;;;;5113677;27;20212;-64
2022/06/12 05:08:27;;;;;;;3.33;3.10;;;;;;;;;;5132308;27;20238;-65
2022/06/12 05:10:54;;;;;;;3.30;3.10;;;;;;;;;;5109077;27;20231;-66
2022/06/12 05:13:21;;;;;;;2.80;2.60;;;;;;;;;;5127676;27;20227;-65
2022/06/12 05:15:49;;;;;;;2.70;2.40;;;;;;;;;;5108276;27;20669;-65
2022/06/12 05:18:18;;;;;;;3.43;3.10;;;;;;;;;;5110656;27;20798;-65
2022/06/12 05:20:46;;;;;;;3.00;2.77;;;;;;;;;;5112886;27;20199;-65
2022/06/12 05:23:17;;;;;;;2.70;2.50;;;;;;;;;;5114279;27;20235;-65
2022/06/12 05:25:45;;;;;;;2.25;2.10;;;;;;;;;;5113202;27;20218;-64
2022/06/12 05:28:14;;;;;;;2.25;2.00;;;;;;;;;;5115499;27;20242;-64
2022/06/12 05:30:42;;;;;;;1.70;1.60;;;;;;;;;;5112991;27;20284;-66
2022/06/12 05:33:09;;;;;;;1.80;1.70;;;;;;;;;;5102754;27;20248;-65
2022/06/12 05:35:37;;;;;;;1.48;1.40;;;;;;;;;;5107384;27;20105;-65
2022/06/12 05:38:06;;;;;;;1.67;1.55;;;;;;;;;;5101701;28;20196;-64
2022/06/12 05:40:35;;;;;;;1.65;1.55;;;;;;;;;;5110987;27;20238;-65
2022/06/12 05:43:03;;;;;;;1.60;1.50;;;;;;;;;;5111778;27;20280;-65
2022/06/12 05:45:32;;;;;;;1.73;1.63;;;;;;;;;;5113285;27;20217;-65
2022/06/12 05:48:02;;;;;;;1.50;1.40;;;;;;;;;;5105981;27;20207;-64
2022/06/12 05:50:31;;;;;;;1.55;1.45;;;;;;;;;;5104319;27;20223;-65
2022/06/12 05:52:59;;;;;;;1.58;1.48;;;;;;;;;;5108312;28;20224;-65
2022/06/12 05:55:26;;;;;;;1.60;1.50;;;;;;;;;;5114277;27;20211;-65
2022/06/12 05:57:54;;;;;;;1.40;1.30;;;;;;;;;;5110493;27;20282;-65
2022/06/12 06:00:24;;;;;;;3.35;1.50;;;;;;;;;;5110043;27;20200;-66
2022/06/12 06:02:52;;;;;;;1.42;1.33;;;;;;;;;;5103824;27;20875;-65
2022/06/12 06:05:20;;;;;;;1.40;1.30;;;;;;;;;;5102204;27;20292;-65
2022/06/12 06:07:47;;;;;;;1.80;1.65;;;;;;;;;;5107354;27;20211;-65
2022/06/12 06:10:16;;;;;;;1.50;1.40;;;;;;;;;;5109347;27;20215;-64
2022/06/12 06:12:44;;;;;;;1.75;1.17;;;;;;;;;;5111376;27;20219;-65
2022/06/12 06:15:11;;;;;;;1.60;1.50;;;;;;;;;;5110493;28;20196;-65
2022/06/12 06:17:39;;;;;;;1.10;1.10;;;;;;;;;;5102962;27;20597;-65
2022/06/12 06:20:08;;;;;;;1.20;1.20;;;;;;;;;;5106727;27;20185;-65
2022/06/12 06:22:35;;;;;;;1.30;1.20;;;;;;;;;;5108275;27;20231;-65
2022/06/12 06:25:03;;;;;;;1.50;1.40;;;;;;;;;;5120811;27;20282;-65
2022/06/12 06:27:30;;;;;;;2.03;1.10;;;;;;;;;;5105753;27;20210;-64
2022/06/12 06:29:58;;;;;;;1.42;1.33;;;;;;;;;;5108686;27;20207;-65
2022/06/12 06:32:25;;;;;;;1.48;1.38;;;;;;;;;;5110472;27;20235;-65
2022/06/12 06:34:52;;;;;;;2.45;1.58;;;;;;;;;;5105583;27;20619;-64
2022/06/12 06:37:20;;;;;;;1.50;1.40;;;;;;;;;;5100293;28;20196;-64
2022/06/12 06:39:47;;;;;;;1.30;1.30;;;;;;;;;;5108923;27;20680;-64
2022/06/12 06:42:15;;;;;;;1.63;1.38;;;;;;;;;;5103259;27;20310;-64
2022/06/12 06:47:28;;;;;;;1.38;1.35;;;;;;;;;;5121085;27;20215;-64
2022/06/12 06:49:56;;;;;;;1.60;1.50;;;;;;;;;;5109102;27;20203;-66
2022/06/12 06:52:23;;;;;;;1.85;1.40;;;;;;;;;;5109588;27;20284;-66
2022/06/12 06:54:51;;;;;;;1.60;1.50;;;;;;;;;;5114342;27;20629;-65
2022/06/12 06:57:18;;;;;;;1.65;1.55;;;;;;;;;;5109722;27;20244;-65
2022/06/12 06:59:46;;;;;;;1.50;1.33;;;;;;;;;;5122430;27;20292;-67
2022/06/12 07:02:13;;;;;;;1.45;1.35;;;;;;;;;;5110138;28;20598;-66
2022/06/12 07:04:41;;;;;;;1.60;1.50;;;;;;;;;;5105679;28;20670;-66
2022/06/12 07:07:08;;;;;;;1.30;1.30;;;;;;;;;;5106131;27;20200;-66
2022/06/12 07:09:38;;;;;;;1.35;1.23;;;;;;;;;;5107551;27;20214;-67
2022/06/12 07:12:05;;;;;;;1.50;1.40;;;;;;;;;;5109872;28;20231;-66
2022/06/12 07:14:33;;;;;;;2.22;1.27;;;;;;;;;;5109474;28;20195;-67
2022/06/12 07:17:01;;;;;;;1.35;1.35;;;;;;;;;;5104595;28;20192;-67
2022/06/12 07:19:28;;;;;;;1.40;1.30;;;;;;;;;;5099121;28;20200;-68
2022/06/12 07:21:56;;;;;;;1.40;1.30;;;;;;;;;;5124749;27;20273;-66
2022/06/12 07:24:27;;;;;;;1.40;1.38;;;;;;;;;;5104873;27;20630;-67
2022/06/12 07:26:54;;;;;;;3.28;1.50;;;;;;;;;;5099992;28;20223;-67
2022/06/12 07:29:22;;;;;;;1.75;1.35;;;;;;;;;;5101154;27;20200;-66
2022/06/12 07:31:50;;;;;;;1.55;1.45;;;;;;;;;;5095248;28;20220;-67
2022/06/12 07:34:17;;;;;;;1.50;1.40;;;;;;;;;;5092627;28;20200;-67
2022/06/12 07:36:47;;;;;;;1.70;1.60;;;;;;;;;;5111610;27;20210;-66
2022/06/12 07:39:17;;;;;;;3.00;1.50;;;;;;;;;;5112899;27;20223;-66
2022/06/12 07:41:47;;;;;;;1.40;1.30;;;;;;;;;;5112649;27;20219;-67
2022/06/12 07:44:16;;;;;;;1.48;1.38;;;;;;;;;;5113238;27;20240;-66
2022/06/12 07:46:44;;;;;;;1.55;1.45;;;;;;;;;;5110421;27;20207;-67
2022/06/12 07:49:11;;;;;;;2.15;1.50;;;;;;;;;;5113226;27;20207;-66
2022/06/12 07:51:39;;;;;;;1.50;1.40;;;;;;;;;;5112887;27;21021;-66
2022/06/12 07:54:06;;;;;;;1.75;1.65;;;;;;;;;;5112893;27;20199;-67
2022/06/12 07:56:34;;;;;;;1.70;1.60;;;;;;;;;;5112377;27;20216;-66
2022/06/12 07:59:01;;;;;;;1.70;1.60;;;;;;;;;;5110440;28;20835;-67
2022/06/12 08:01:29;;;;;;;1.73;1.58;;;;;;;;;;5111642;28;20225;-66
2022/06/12 08:03:57;;;;;;;1.55;1.45;;;;;;;;;;5109067;28;20203;-66
2022/06/12 08:06:25;;;;;;;1.98;1.50;;;;;;;;;;5112721;28;20203;-66
2022/06/12 08:08:53;;;;;;;1.50;1.40;;;;;;;;;;5110374;28;20208;-67
2022/06/12 08:11:25;;;;;;;2.38;1.75;;;;;;;;;;5113155;28;20570;-66
2022/06/12 08:13:52;;;;;;;2.45;1.67;;;;;;;;;;5112761;28;20506;-64
2022/06/12 08:16:20;;;;;;;1.60;1.50;;;;;;;;;;5110011;28;20207;-66
2022/06/12 08:18:47;;;;;;;1.70;1.60;;;;;;;;;;5109607;28;20212;-66
2022/06/12 08:21:16;;;;;;;2.00;1.73;;;;;;;;;;5112060;28;20259;-66
2022/06/12 08:23:49;;;;;;;1.73;1.63;;;;;;;;;;5110691;28;20206;-66
2022/06/12 08:26:16;;;;;;;1.70;1.60;;;;;;;;;;5108537;28;20219;-67
2022/06/12 08:28:45;;;;;;;2.47;1.63;;;;;;;;;;5109806;27;20215;-67
2022/06/12 08:31:14;;;;;;;1.70;1.60;;;;;;;;;;5111537;27;20222;-66
2022/06/12 08:33:43;;;;;;;1.70;1.60;;;;;;;;;;5107570;27;20208;-65
2022/06/12 08:36:11;;;;;;;2.45;1.77;;;;;;;;;;5108532;27;20211;-66
2022/06/12 08:38:39;;;;;;;4.53;1.85;;;;;;;;;;5114385;27;20532;-66
2022/06/12 08:41:08;;;;;;;2.50;1.80;;;;;;;;;;5126390;27;20811;-66
2022/06/12 08:43:54;;;;;;;1.80;1.70;;;;;;;;;;5113420;27;20231;-67
2022/06/12 08:46:28;;;;;;;1.98;1.60;;;;;;;;;;5128348;27;20287;-66
2022/06/12 08:48:59;;;;;;;2.35;1.80;;;;;;;;;;5109028;27;20203;-65
2022/06/12 08:51:37;;;;;;;2.08;1.50;;;;;;;;;;5109078;27;20637;-65
2022/06/12 08:54:09;;;;;;;1.75;1.65;;;;;;;;;;5111282;27;21025;-66
2022/06/12 08:56:43;;;;;;;2.50;1.52;;;;;;;;;;5110002;27;20203;-66
2022/06/12 08:59:18;;;;;;;3.75;1.80;;;;;;;;;;5105612;27;20195;-65
2022/06/12 09:01:45;;;;;;;2.20;1.50;;;;;;;;;;5108168;27;20223;-65
2022/06/12 09:04:18;;;;;;;1.90;1.45;;;;;;;;;;5107647;27;20245;-66
2022/06/12 09:06:50;;;;;;;2.05;1.83;;;;;;;;;;5126510;27;20242;-65
2022/06/12 09:09:27;;;;;;;3.17;1.58;;;;;;;;;;5098004;27;20699;-66
2022/06/12 09:12:03;;;;;;;1.88;1.70;;;;;;;;;;5107645;27;20392;-66
2022/06/12 09:14:31;;;;;;;3.53;1.65;;;;;;;;;;5108102;28;20219;-66
2022/06/12 09:17:04;;;;;;;2.20;1.50;;;;;;;;;;5112522;27;20195;-66
2022/06/12 09:19:52;;;;;;;1.98;1.67;;;;;;;;;;5130194;27;20198;-65
2022/06/12 09:22:26;;;;;;;2.08;1.80;;;;;;;;;;5107065;27;20782;-66
2022/06/12 09:25:00;;;;;;;2.33;1.60;;;;;;;;;;5102956;28;20203;-67
2022/06/12 09:27:39;;;;;;;1.60;1.50;;;;;;;;;;5110947;28;20207;-65
2022/06/12 09:30:19;;;;;;;1.42;1.33;;;;;;;;;;5121253;27;20222;-65
2022/06/12 09:33:05;;;;;;;2.35;1.60;;;;;;;;;;5102299;27;20238;-66
2022/06/12 09:35:45;;;;;;;2.28;2.13;;;;;;;;;;5110225;28;20258;-66
2022/06/12 09:38:21;;;;;;;2.03;1.45;;;;;;;;;;5107647;27;20207;-65
2022/06/12 09:40:52;;;;;;;2.10;1.77;;;;;;;;;;5101683;27;20235;-65
2022/06/12 09:43:33;;;;;;;5.07;1.70;;;;;;;;;;5108133;27;20644;-64
2022/06/12 09:46:03;;;;;;;1.70;1.60;;;;;;;;;;5114683;27;20210;-65
2022/06/12 09:48:46;;;;;;;1.67;1.58;;;;;;;;;;5094939;27;20559;-65
2022/06/12 09:51:27;;;;;;;3.05;1.50;;;;;;;;;;5099256;27;20780;-65
2022/06/12 09:54:13;;;;;;;1.75;1.52;;;;;;;;;;5112585;27;20249;-65
2022/06/12 09:56:54;;;;;;;2.00;1.80;;;;;;;;;;5121736;27;20546;-65
2022/06/12 09:59:35;;;;;;;1.75;1.55;;;;;;;;;;5108332;27;20200;-65
2022/06/12 10:02:07;;;;;;;1.75;1.50;;;;;;;;;;5109470;27;20272;-66
2022/06/12 10:04:38;;;;;;;2.00;1.35;;;;;;;;;;5107032;27;20195;-66
2022/06/12 10:07:16;;;;;;;3.10;1.80;;;;;;;;;;5108788;27;20203;-66
2022/06/12 10:09:50;;;;;;;1.60;1.50;;;;;;;;;;5102207;28;20219;-65
2022/06/12 10:12:28;;;;;;;1.67;1.55;;;;;;;;;;5106146;27;20707;-66
2022/06/12 10:15:05;;;;;;;1.70;1.60;;;;;;;;;;5110791;27;20204;-65
2022/06/12 10:17:38;;;;;;;1.75;1.63;;;;;;;;;;5112984;27;20191;-66
2022/06/12 10:20:11;;;;;;;3.38;1.63;;;;;;;;;;5122482;27;20206;-66
2022/06/12 10:22:44;;;;;;;3.67;1.60;;;;;;;;;;5122448;27;20234;-66
2022/06/12 10:25:23;;;;;;;1.48;1.38;;;;;;;;;;5106289;27;20300;-66
2022/06/12 10:27:53;;;;;;;1.73;1.63;;;;;;;;;;5101376;27;20210;-65
2022/06/12 10:30:33;;;;;;;2.38;2.00;;;;;;;;;;5099030;27;20660;-65
2022/06/12 10:33:21;;;;;;;1.90;1.38;;;;;;;;;;5102355;28;20228;-65
2022/06/12 10:35:49;;;;;;;1.70;1.60;;;;;;;;;;5090513;22;20236;-76
2022/06/12 10:38:18;;;;;;;2.20;1.48;;;;;;;;;;5090666;28;20192;-75
2022/06/12 10:40:51;;;;;;;1.73;1.55;;;;;;;;;;5103600;28;20673;-76
2022/06/12 10:43:38;;;;;;;1.73;1.63;;;;;;;;;;5087704;28;20224;-74
2022/06/12 10:46:06;;;;;;;2.15;1.80;;;;;;;;;;5051951;28;20209;-75
2022/06/12 10:48:35;;;;;;;1.50;1.40;;;;;;;;;;5082060;28;20205;-75
2022/06/12 10:51:21;;;;;;;5.43;2.20;;;;;;;;;;5085104;28;20572;-73
2022/06/12 10:53:55;;;;;;;2.65;2.00;;;;;;;;;;5077466;28;20339;-76
2022/06/12 10:56:25;;;;;;;3.75;1.60;;;;;;;;;;5083025;28;20193;-74
2022/06/12 10:59:18;;;;;;;2.22;1.77;;;;;;;;;;5073762;28;20197;-74
2022/06/12 11:01:54;;;;;;;3.22;1.60;;;;;;;;;;5083868;28;20213;-75
2022/06/12 11:04:42;;;;;;;1.65;1.40;;;;;;;;;;5071857;28;20204;-76
2022/06/12 11:07:12;;;;;;;3.47;1.70;;;;;;;;;;5086903;28;20193;-76
2022/06/12 11:09:57;;;;;;;2.45;1.48;;;;;;;;;;5090310;28;20246;-75
2022/06/12 11:12:27;;;;;;;2.78;1.60;;;;;;;;;;5076553;28;20738;-74
2022/06/12 11:15:14;;;;;;;2.33;1.60;;;;;;;;;;5078155;28;20193;-77
2022/06/12 11:17:59;;;;;;;3.35;1.48;;;;;;;;;;5071744;28;20732;-75
2022/06/12 11:20:36;;;;;;;2.30;1.80;;;;;;;;;;5077720;28;20198;-75
2022/06/12 11:23:09;;;;;;;1.80;1.70;;;;;;;;;;5067173;28;20586;-76
2022/06/12 11:26:00;;;;;;;2.17;1.42;;;;;;;;;;5078648;28;20207;-76
2022/06/12 11:28:36;;;;;;;2.88;1.60;;;;;;;;;;5073879;28;20299;-76
2022/06/12 11:31:09;;;;;;;1.85;1.73;;;;;;;;;;5078542;28;20723;-76
2022/06/12 11:33:43;;;;;;;1.60;1.50;;;;;;;;;;5080355;28;20256;-75
2022/06/12 11:36:16;;;;;;;1.73;1.55;;;;;;;;;;5077687;28;20270;-76
2022/06/12 11:38:46;;;;;;;2.70;1.88;;;;;;;;;;5087279;28;20232;-76
2022/06/12 11:41:20;;;;;;;1.70;1.60;;;;;;;;;;5073598;28;20262;-76
2022/06/12 11:43:57;;;;;;;2.80;2.60;;;;;;;;;;5068279;28;20228;-74
2022/06/12 11:46:30;;;;;;;1.92;1.80;;;;;;;;;;5068258;28;20198;-75
2022/06/12 11:49:16;;;;;;;2.00;1.80;;;;;;;;;;5079468;28;20250;-76
2022/06/12 11:51:50;;;;;;;1.80;1.70;;;;;;;;;;5068076;28;20214;-75
2022/06/12 11:54:17;;;;;;;2.17;1.70;;;;;;;;;;5060051;28;20208;-75
2022/06/12 11:56:48;;;;;;;1.80;1.70;;;;;;;;;;5057299;28;20195;-76
2022/06/12 11:59:28;;;;;;;2.20;1.70;;;;;;;;;;5061032;28;20404;-75
2022/06/12 12:01:58;;;;;;;2.72;1.80;;;;;;;;;;5074364;28;20498;-75
2022/06/12 12:04:40;;;;;;;2.40;1.90;;;;;;;;;;5081709;28;20232;-74
2022/06/12 12:07:27;;;;;;;2.30;1.90;;;;;;;;;;5085459;28;20224;-77
2022/06/12 12:09:57;;;;;;;2.92;1.92;;;;;;;;;;5075507;28;20381;-77
2022/06/12 12:12:45;;;;;;;2.20;2.03;;;;;;;;;;5081608;28;20265;-76
2022/06/12 12:15:21;;;;;;;2.15;2.05;;;;;;;;;;5068351;28;20647;-76
2022/06/12 12:17:49;;;;;;;2.65;2.45;;;;;;;;;;5096185;28;20658;-76
2022/06/12 12:20:21;;;;;;;2.17;2.00;;;;;;;;;;5093111;28;20632;-75
2022/06/12 12:22:59;;;;;;;1.95;1.70;;;;;;;;;;5105453;28;20247;-76
2022/06/12 12:25:30;;;;;;;1.90;1.80;;;;;;;;;;5107685;28;20192;-76
2022/06/12 12:28:00;;;;;;;2.67;2.00;;;;;;;;;;5093276;28;20247;-75
2022/06/12 12:30:31;;;;;;;3.10;1.90;;;;;;;;;;5086986;28;20197;-74
2022/06/12 12:33:00;;;;;;;3.25;2.10;;;;;;;;;;5082327;28;20290;-76
2022/06/12 12:41:12;;;;;;;2.42;2.08;;;;;;;;;;5101775;28;20235;-76
2022/06/12 12:44:08;;;;;;;2.22;2.03;;;;;;;;;;5084116;28;20247;-74
2022/06/12 12:46:45;;;;;;;2.35;1.90;;;;;;;;;;5063008;28;20207;-75
2022/06/12 12:49:27;;;;;;;2.17;2.00;;;;;;;;;;5083892;28;20208;-74
2022/06/12 12:52:09;;;;;;;1.75;1.60;;;;;;;;;;5082992;28;20640;-74
2022/06/12 12:54:45;;;;;;;1.85;1.75;;;;;;;;;;5083011;28;20631;-74
2022/06/12 12:57:13;;;;;;;2.35;1.63;;;;;;;;;;5087250;28;20205;-75
2022/06/12 12:59:43;;;;;;;1.73;1.63;;;;;;;;;;5086938;28;20208;-74
2022/06/12 13:02:22;;;;;;;1.60;1.50;;;;;;;;;;5077806;28;20706;-74
2022/06/12 13:04:50;;;;;;;2.45;1.88;;;;;;;;;;5074104;28;20213;-75
2022/06/12 13:07:43;;;;;;;2.30;1.70;;;;;;;;;;5087117;28;20247;-76
2022/06/12 13:10:29;;;;;;;2.72;1.80;;;;;;;;;;5082971;28;20233;-75
2022/06/12 13:13:02;;;;;;;1.92;1.77;;;;;;;;;;5085924;28;20221;-76
2022/06/12 13:15:42;;;;;;;1.70;1.60;;;;;;;;;;5087570;28;20251;-77
2022/06/12 13:18:28;;;;;;;1.88;1.67;;;;;;;;;;5086171;28;20675;-76
2022/06/12 13:21:14;;;;;;;2.00;1.90;;;;;;;;;;5090344;28;20226;-75
2022/06/12 13:23:53;;;;;;;1.85;1.75;;;;;;;;;;5071886;28;20229;-74
2022/06/12 13:26:23;;;;;;;1.80;1.52;;;;;;;;;;5071645;28;20212;-74
2022/06/12 13:28:55;;;;;;;2.10;1.88;;;;;;;;;;5070540;28;20522;-75
2022/06/12 13:31:22;;;;;;;1.92;1.83;;;;;;;;;;5051885;28;20510;-76
2022/06/12 13:33:55;;;;;;;2.20;2.00;;;;;;;;;;5068657;28;20222;-74
2022/06/12 13:36:27;;;;;;;1.95;1.85;;;;;;;;;;5084143;28;20282;-76
2022/06/12 13:38:57;;;;;;;2.15;2.05;;;;;;;;;;5086221;28;20600;-76
2022/06/12 13:41:28;;;;;;;2.28;2.00;;;;;;;;;;5084169;28;20197;-76
2022/06/12 13:43:55;;;;;;;1.98;1.80;;;;;;;;;;5089026;28;20709;-75
2022/06/12 13:46:28;;;;;;;1.98;1.88;;;;;;;;;;5087456;28;20205;-75
2022/06/12 13:48:57;;;;;;;1.60;1.50;;;;;;;;;;5088364;28;20044;-75
2022/06/12 13:51:32;;;;;;;2.30;1.95;;;;;;;;;;5090008;28;20204;-74
2022/06/12 13:54:02;;;;;;;1.58;1.55;;;;;;;;;;5070114;28;20316;-75
2022/06/12 13:56:29;;;;;;;2.75;1.83;;;;;;;;;;5077223;28;20244;-75
2022/06/12 13:58:57;;;;;;;1.90;1.80;;;;;;;;;;5072098;28;20205;-73
2022/06/12 14:01:33;;;;;;;1.90;1.67;;;;;;;;;;5068716;28;20216;-75
2022/06/12 14:04:04;;;;;;;1.70;1.60;;;;;;;;;;5069651;28;20212;-74
2022/06/12 14:06:33;;;;;;;1.80;1.70;;;;;;;;;;5085443;28;20208;-75
2022/06/12 14:09:03;;;;;;;2.03;1.90;;;;;;;;;;5079306;28;20243;-76
2022/06/12 14:11:36;;;;;;;1.83;1.73;;;;;;;;;;5069578;28;20217;-74
2022/06/12 14:14:04;;;;;;;1.70;1.60;;;;;;;;;;5081104;28;20279;-76
2022/06/12 14:16:33;;;;;;;2.35;1.60;;;;;;;;;;5087588;28;20206;-73
2022/06/12 14:19:02;;;;;;;2.08;1.70;;;;;;;;;;5080159;28;20205;-75
2022/06/12 14:21:30;;;;;;;2.17;1.80;;;;;;;;;;5084083;28;20201;-75
2022/06/12 14:24:00;;;;;;;1.98;1.88;;;;;;;;;;5063610;28;20278;-75
2022/06/12 14:26:27;;;;;;;2.63;1.77;;;;;;;;;;5070951;28;20309;-76
2022/06/12 14:28:55;;;;;;;2.78;1.77;;;;;;;;;;5085483;28;20227;-75
2022/06/12 14:31:25;;;;;;;3.28;1.80;;;;;;;;;;5074867;28;20241;-75
2022/06/12 14:34:04;;;;;;;1.80;1.70;;;;;;;;;;5088469;28;20690;-76
2022/06/12 14:36:37;;;;;;;1.70;1.60;;;;;;;;;;5088309;28;20342;-74
2022/06/12 14:39:12;;;;;;;3.28;1.98;;;;;;;;;;5089234;28;20227;-74
2022/06/12 14:41:50;;;;;;;2.05;1.90;;;;;;;;;;5083564;28;20723;-76
2022/06/12 14:44:18;;;;;;;1.73;1.60;;;;;;;;;;5084527;28;20646;-76
2022/06/12 14:46:45;;;;;;;2.42;1.60;;;;;;;;;;5087663;28;20205;-74
2022/06/12 14:49:12;;;;;;;;;;;;;;;;;;5078785;28;20055;-75
2022/06/12 14:51:40;;;;;;;1.90;1.80;;;;;;;;;;5087867;28;19946;-76
2022/06/12 14:54:07;;;;;;;1.88;1.70;;;;;;;;;;5081523;28;20260;-75
2022/06/12 14:56:35;;;;;;;1.92;1.60;;;;;;;;;;5088092;28;20220;-76
2022/06/12 14:59:02;;;;;;;2.53;1.90;;;;;;;;;;5088449;28;20205;-76
2022/06/12 15:01:30;;;;;;;2.88;1.70;;;;;;;;;;5074984;28;20205;-75
2022/06/12 15:03:58;;;;;;;2.13;1.52;;;;;;;;;;5080300;28;20654;-75
2022/06/12 15:06:26;;;;;;;1.85;1.70;;;;;;;;;;5085173;28;20254;-75
2022/06/12 15:08:54;;;;;;;1.75;1.65;;;;;;;;;;5087570;28;20205;-75
2022/06/12 15:11:23;;;;;;;3.22;2.30;;;;;;;;;;5084368;28;20205;-74
2022/06/12 15:13:51;;;;;;;2.28;2.08;;;;;;;;;;5087418;28;20224;-75
2022/06/12 15:16:19;;;;;;;1.80;1.70;;;;;;;;;;5087389;28;20221;-74
2022/06/12 15:18:47;;;;;;;2.63;1.98;;;;;;;;;;5085757;28;20201;-76
2022/06/12 15:21:15;;;;;;;4.35;1.80;;;;;;;;;;5084452;28;20232;-76
2022/06/12 15:23:43;;;;;;;6.03;2.38;;;;;;;;;;5079983;28;20302;-76
2022/06/12 15:31:47;;;;;;;2.10;1.90;;;;;;;;;;5086785;28;20216;-75
2022/06/12 15:34:26;;;;;;;3.35;1.80;;;;;;;;;;5081797;28;20665;-76